createdAt,value
2023-03-13T00:01:18.455Z,41.63
2023-03-13T00:03:46.322Z,41.57
2023-03-13T00:06:14.512Z,43.11
2023-03-13T00:08:42.576Z,43.06
2023-03-13T00:11:12.177Z,42.89
2023-03-13T00:13:39.641Z,42.65
2023-03-13T00:16:09.118Z,44.34
2023-03-13T00:18:37.142Z,45.04
2023-03-13T00:21:09.014Z,44.52
2023-03-13T00:23:38.219Z,45.40
2023-03-13T00:26:07.898Z,46.30
2023-03-13T00:28:37.220Z,45.90
2023-03-13T00:31:06.093Z,45.52
2023-03-13T00:33:38.033Z,45.29
2023-03-13T00:36:07.964Z,44.27
2023-03-13T00:38:35.949Z,44.64
2023-03-13T00:41:05.133Z,44.79
2023-03-13T00:43:33.180Z,45.48
2023-03-13T00:46:01.541Z,46.44
2023-03-13T00:48:29.053Z,45.36
2023-03-13T00:50:56.778Z,45.76
2023-03-13T00:53:24.274Z,45.95
2023-03-13T00:55:53.157Z,45.09
2023-03-13T00:58:21.646Z,44.80
2023-03-13T01:00:49.224Z,45.24
2023-03-13T01:03:16.847Z,45.39
2023-03-13T01:05:44.596Z,45.08
2023-03-13T01:08:11.997Z,44.74
2023-03-13T01:10:39.385Z,44.71
2023-03-13T01:13:07.461Z,44.93
2023-03-13T01:15:35.821Z,45.51
2023-03-13T01:18:03.580Z,45.36
2023-03-13T01:20:33.241Z,45.86
2023-03-13T01:23:00.690Z,45.46
2023-03-13T01:25:28.093Z,45.49
2023-03-13T01:27:55.875Z,45.19
2023-03-13T01:30:23.538Z,45.14
2023-03-13T01:32:50.971Z,45.53
2023-03-13T01:35:19.720Z,45.45
2023-03-13T01:37:47.174Z,45.00
2023-03-13T01:40:14.825Z,44.90
2023-03-13T01:42:53.193Z,45.09
2023-03-13T01:45:55.286Z,45.01
2023-03-13T01:48:29.084Z,45.22
2023-03-13T01:50:57.387Z,44.80
2023-03-13T01:53:25.593Z,45.72
2023-03-13T01:55:54.573Z,45.74
2023-03-13T01:58:22.341Z,45.36
2023-03-13T02:00:51.076Z,45.46
2023-03-13T02:03:20.352Z,45.34
2023-03-13T02:05:49.428Z,46.75
2023-03-13T02:08:29.657Z,45.36
2023-03-13T02:11:08.582Z,45.54
2023-03-13T02:13:36.002Z,45.75
2023-03-13T02:16:04.356Z,45.27
2023-03-13T02:18:31.948Z,46.05
2023-03-13T02:21:10.465Z,45.89
2023-03-13T02:23:48.758Z,46.10
2023-03-13T02:26:16.470Z,45.03
2023-03-13T02:28:44.005Z,44.90
2023-03-13T02:31:12.355Z,46.07
2023-03-13T02:33:41.682Z,46.14
2023-03-13T02:36:11.429Z,45.92
2023-03-13T02:38:45.257Z,46.49
2023-03-13T02:41:13.918Z,46.16
2023-03-13T02:43:41.442Z,46.71
2023-03-13T02:46:11.547Z,46.59
2023-03-13T02:48:45.236Z,46.58
2023-03-13T02:51:33.575Z,46.32
2023-03-13T02:54:06.353Z,47.02
2023-03-13T02:56:36.722Z,46.85
2023-03-13T02:59:04.770Z,46.84
2023-03-13T03:01:33.074Z,46.73
2023-03-13T03:04:00.640Z,46.40
2023-03-13T03:06:28.421Z,47.03
2023-03-13T03:08:56.186Z,46.95
2023-03-13T03:11:23.968Z,47.42
2023-03-13T03:13:52.079Z,46.32
2023-03-13T03:16:20.697Z,46.36
2023-03-13T03:18:50.072Z,46.31
2023-03-13T03:21:18.097Z,47.48
2023-03-13T03:23:45.529Z,46.55
2023-03-13T03:26:13.195Z,47.58
2023-03-13T03:28:40.910Z,47.67
2023-03-13T03:31:10.579Z,48.67
2023-03-13T03:33:38.923Z,47.45
2023-03-13T03:36:09.882Z,48.37
2023-03-13T03:38:39.752Z,48.36
2023-03-13T03:41:08.863Z,47.71
2023-03-13T03:43:36.980Z,47.59
2023-03-13T03:46:05.039Z,48.43
2023-03-13T03:48:33.297Z,48.32
2023-03-13T03:51:01.756Z,48.10
2023-03-13T03:53:29.440Z,48.13
2023-03-13T03:55:57.165Z,48.51
2023-03-13T03:58:24.819Z,48.59
2023-03-13T04:00:54.195Z,48.93
2023-03-13T04:03:22.087Z,48.65
2023-03-13T04:05:49.886Z,48.96
2023-03-13T04:08:17.626Z,48.96
2023-03-13T04:10:45.583Z,50.07
2023-03-13T04:13:13.140Z,49.95
2023-03-13T04:15:41.040Z,48.95
2023-03-13T04:18:10.101Z,49.46
2023-03-13T04:20:37.774Z,49.79
2023-03-13T04:23:05.179Z,49.58
2023-03-13T04:25:32.841Z,49.49
2023-03-13T04:28:00.686Z,50.38
2023-03-13T04:30:28.635Z,49.83
2023-03-13T04:32:56.697Z,50.49
2023-03-13T04:35:24.969Z,50.29
2023-03-13T04:37:52.603Z,49.54
2023-03-13T04:40:21.218Z,49.42
2023-03-13T04:42:49.370Z,49.75
2023-03-13T04:45:16.984Z,49.17
2023-03-13T04:47:46.682Z,49.62
2023-03-13T04:50:16.585Z,49.79
2023-03-13T04:52:49.175Z,49.73
2023-03-13T04:55:17.934Z,49.16
2023-03-13T04:57:45.671Z,48.21
2023-03-13T05:00:14.082Z,48.52
2023-03-13T05:02:42.523Z,48.26
2023-03-13T05:05:11.378Z,49.07
2023-03-13T05:07:42.903Z,48.50
2023-03-13T05:10:10.938Z,48.65
2023-03-13T05:12:39.224Z,48.01
2023-03-13T05:15:08.817Z,48.01
2023-03-13T05:17:36.445Z,47.87
2023-03-13T05:20:06.775Z,46.96
2023-03-13T05:22:34.934Z,47.85
2023-03-13T05:25:05.913Z,47.77
2023-03-13T05:27:34.098Z,47.11
2023-03-13T05:30:02.120Z,47.47
2023-03-13T05:32:30.636Z,46.61
2023-03-13T05:34:58.838Z,47.32
2023-03-13T05:37:27.670Z,47.37
2023-03-13T05:39:55.597Z,47.06
2023-03-13T05:42:23.531Z,46.43
2023-03-13T05:44:51.360Z,47.06
2023-03-13T05:47:19.207Z,47.81
2023-03-13T05:49:46.686Z,47.32
2023-03-13T05:52:14.478Z,48.02
2023-03-13T05:54:42.032Z,46.94
2023-03-13T05:57:09.814Z,47.45
2023-03-13T05:59:37.723Z,47.89
2023-03-13T06:02:05.917Z,47.52
2023-03-13T06:04:34.631Z,47.17
2023-03-13T06:07:02.336Z,47.45
2023-03-13T06:09:29.809Z,47.17
2023-03-13T06:11:57.818Z,48.35
2023-03-13T06:14:25.447Z,47.58
2023-03-13T06:16:57.053Z,47.14
2023-03-13T06:19:25.295Z,47.54
2023-03-13T06:21:52.796Z,46.95
2023-03-13T06:24:20.159Z,46.46
2023-03-13T06:26:51.615Z,46.35
2023-03-13T06:29:19.167Z,47.28
2023-03-13T06:31:46.684Z,46.80
2023-03-13T06:34:14.773Z,46.02
2023-03-13T06:36:42.165Z,45.84
2023-03-13T06:39:09.983Z,46.09
2023-03-13T06:41:37.667Z,46.53
2023-03-13T06:44:05.467Z,46.60
2023-03-13T06:46:33.051Z,45.99
2023-03-13T06:49:04.567Z,45.12
2023-03-13T06:51:32.297Z,45.54
2023-03-13T06:53:59.669Z,44.90
2023-03-13T06:56:27.458Z,44.77
2023-03-13T06:58:54.874Z,44.11
2023-03-13T07:01:22.387Z,43.90
2023-03-13T07:03:50.225Z,44.10
2023-03-13T07:06:18.702Z,44.31
2023-03-13T07:08:46.201Z,43.53
2023-03-13T07:11:14.537Z,42.56
2023-03-13T07:13:42.056Z,43.39
2023-03-13T07:16:12.007Z,44.30
2023-03-13T07:18:44.883Z,43.64
2023-03-13T07:21:12.828Z,43.88
2023-03-13T07:23:40.998Z,43.96
2023-03-13T07:26:13.544Z,44.40
2023-03-13T07:28:42.108Z,43.78
2023-03-13T07:31:15.637Z,44.35
2023-03-13T07:33:44.893Z,43.66
2023-03-13T07:36:14.004Z,43.09
2023-03-13T07:38:42.958Z,43.11
2023-03-13T07:41:12.676Z,42.61
2023-03-13T07:43:40.095Z,42.69
2023-03-13T07:46:11.067Z,42.13
2023-03-13T07:48:41.416Z,42.45
2023-03-13T07:51:30.309Z,42.85
2023-03-13T07:54:04.717Z,42.13
2023-03-13T07:56:32.170Z,42.39
2023-03-13T07:58:59.583Z,41.54
2023-03-13T08:01:30.538Z,40.64
2023-03-13T08:04:01.451Z,41.35
2023-03-13T08:06:33.661Z,40.70
2023-03-13T08:09:02.009Z,39.79
2023-03-13T08:11:29.908Z,39.78
2023-03-13T08:13:57.825Z,39.09
2023-03-13T08:16:31.769Z,39.14
2023-03-13T08:37:31.096Z,36.48
2023-03-13T08:39:58.805Z,36.04
2023-03-13T08:42:26.158Z,35.85
2023-03-13T08:44:53.569Z,36.95
2023-03-13T08:47:21.247Z,35.79
2023-03-13T08:49:48.693Z,35.80
2023-03-13T08:52:16.096Z,35.68
2023-03-13T08:54:43.879Z,35.71
2023-03-13T08:57:11.304Z,35.07
2023-03-13T08:59:38.708Z,35.05
2023-03-13T09:02:06.519Z,34.86
2023-03-13T09:04:33.992Z,34.04
2023-03-13T09:07:01.384Z,34.18
2023-03-13T09:09:29.094Z,35.13
2023-03-13T09:11:56.482Z,35.17
2023-03-13T09:14:23.897Z,34.74
2023-03-13T09:16:51.624Z,33.97
2023-03-13T09:19:19.027Z,34.17
2023-03-13T09:21:46.619Z,34.20
2023-03-13T09:24:14.302Z,34.50
2023-03-13T09:26:48.946Z,34.14
2023-03-13T09:29:22.900Z,34.15
2023-03-13T09:31:50.312Z,34.34
2023-03-13T09:34:17.712Z,34.31
2023-03-13T09:36:45.425Z,34.11
2023-03-13T09:39:12.896Z,34.91
2023-03-13T09:41:55.459Z,34.24
2023-03-13T09:44:29.421Z,33.19
2023-03-13T09:47:01.935Z,32.83
2023-03-13T09:49:37.228Z,32.97
2023-03-13T09:52:12.359Z,33.28
2023-03-13T09:54:57.379Z,32.14
2023-03-13T09:57:32.762Z,32.18
2023-03-13T10:00:09.173Z,32.17
2023-03-13T10:02:38.960Z,31.47
2023-03-13T10:05:17.028Z,31.10
2023-03-13T10:07:44.777Z,31.83
2023-03-13T10:10:18.670Z,31.00
2023-03-13T10:12:48.656Z,31.72
2023-03-13T10:15:22.179Z,31.25
2023-03-13T10:17:49.936Z,31.11
2023-03-13T10:20:29.449Z,30.89
2023-03-13T10:23:02.627Z,30.84
2023-03-13T10:25:34.239Z,30.79
2023-03-13T10:28:02.553Z,30.76
2023-03-13T10:30:32.848Z,30.48
2023-03-13T10:33:29.821Z,30.96
2023-03-13T10:36:07.642Z,30.64
2023-03-13T10:38:46.261Z,30.96
2023-03-13T10:41:27.328Z,30.92
2023-03-13T10:43:59.678Z,30.61
2023-03-13T10:46:35.988Z,30.42
2023-03-13T10:49:05.477Z,29.56
2023-03-13T10:51:38.673Z,29.67
2023-03-13T10:54:24.303Z,30.06
2023-03-13T10:56:55.946Z,29.71
2023-03-13T10:59:25.633Z,29.78
2023-03-13T11:02:01.140Z,29.72
2023-03-13T11:04:31.150Z,29.72
2023-03-13T11:07:05.150Z,29.78
2023-03-13T11:09:33.366Z,30.24
2023-03-13T11:12:14.182Z,29.74
2023-03-13T11:14:42.846Z,29.39
2023-03-13T11:17:19.704Z,30.07
2023-03-13T11:19:59.233Z,29.88
2023-03-13T11:23:04.043Z,29.36
2023-03-13T11:25:46.669Z,29.40
2023-03-13T11:28:28.280Z,29.91
2023-03-13T11:31:07.871Z,29.39
2023-03-13T11:33:39.294Z,29.49
2023-03-13T11:36:40.885Z,29.76
2023-03-13T11:39:33.320Z,29.70
2023-03-13T11:42:13.716Z,30.07
2023-03-13T11:45:22.456Z,29.95
2023-03-13T11:48:00.931Z,30.59
2023-03-13T11:51:01.002Z,30.52
2023-03-13T11:53:31.254Z,30.50
2023-03-13T11:56:21.853Z,30.56
2023-03-13T11:59:16.752Z,31.04
2023-03-13T12:01:49.938Z,30.18
2023-03-13T12:04:36.776Z,30.15
2023-03-13T12:07:16.050Z,29.97
2023-03-13T12:09:50.140Z,30.30
2023-03-13T12:12:26.284Z,30.83
2023-03-13T12:15:19.088Z,30.96
2023-03-13T12:18:02.192Z,30.04
2023-03-13T12:20:50.152Z,30.15
2023-03-13T12:23:20.460Z,30.35
2023-03-13T12:26:31.663Z,30.25
2023-03-13T12:29:37.494Z,31.15
2023-03-13T12:32:19.037Z,30.66
2023-03-13T12:35:05.321Z,30.66
2023-03-13T12:37:47.622Z,31.15
2023-03-13T12:40:24.145Z,31.06
2023-03-13T12:43:19.145Z,30.91
2023-03-13T12:46:06.720Z,30.68
2023-03-13T12:48:40.466Z,30.20
2023-03-13T12:51:30.247Z,30.35
2023-03-13T12:54:10.269Z,29.86
2023-03-13T12:56:43.091Z,30.54
2023-03-13T12:59:23.311Z,30.58
2023-03-13T13:01:53.726Z,30.35
2023-03-13T13:04:22.433Z,30.27
2023-03-13T13:06:56.131Z,30.90
2023-03-13T13:09:27.936Z,30.75
2023-03-13T13:11:57.724Z,31.42
2023-03-13T13:14:28.350Z,30.75
2023-03-13T13:17:11.073Z,30.90
2023-03-13T13:19:41.446Z,30.61
2023-03-13T13:22:36.958Z,30.89
2023-03-13T13:25:04.916Z,31.27
2023-03-13T13:27:32.310Z,30.75
2023-03-13T13:30:01.353Z,31.04
2023-03-13T13:32:32.034Z,30.87
2023-03-13T13:35:18.195Z,30.66
2023-03-13T13:37:49.319Z,31.32
2023-03-13T13:40:23.927Z,31.71
2023-03-13T13:42:53.906Z,31.18
2023-03-13T13:45:25.745Z,31.34
2023-03-13T13:48:19.723Z,31.59
2023-03-13T13:51:14.184Z,31.37
2023-03-13T13:53:54.285Z,31.52
2023-03-13T13:56:27.772Z,32.03
2023-03-13T13:59:25.844Z,32.40
2023-03-13T14:02:10.229Z,31.65
2023-03-13T14:04:47.620Z,31.23
2023-03-13T14:07:19.320Z,31.84
2023-03-13T14:09:52.543Z,31.24
2023-03-13T14:12:32.161Z,31.66
2023-03-13T14:15:18.140Z,31.63
2023-03-13T14:18:00.363Z,31.30
2023-03-13T14:20:29.606Z,31.45
2023-03-13T14:23:01.598Z,31.83
2023-03-13T14:25:41.681Z,32.25
2023-03-13T14:28:18.016Z,32.11
2023-03-13T14:30:46.504Z,31.13
2023-03-13T14:33:14.065Z,31.41
2023-03-13T14:35:42.240Z,31.72
2023-03-13T14:38:24.631Z,32.36
2023-03-13T14:40:53.243Z,32.20
2023-03-13T14:43:27.107Z,32.83
2023-03-13T14:45:54.683Z,32.38
2023-03-13T14:48:32.023Z,32.58
2023-03-13T14:51:15.655Z,32.67
2023-03-13T14:53:55.582Z,33.16
2023-03-13T14:56:34.931Z,32.81
2023-03-13T14:59:16.778Z,32.76
2023-03-13T15:01:44.831Z,33.53
2023-03-13T15:04:12.652Z,33.08
2023-03-13T15:06:40.101Z,33.09
2023-03-13T15:09:15.907Z,33.09
2023-03-13T15:11:54.959Z,33.38
2023-03-13T15:14:36.547Z,33.81
2023-03-13T15:17:06.067Z,34.03
2023-03-13T15:19:33.481Z,34.07
2023-03-13T15:22:01.022Z,34.07
2023-03-13T15:24:28.686Z,33.80
2023-03-13T15:26:56.188Z,34.01
2023-03-13T15:29:23.602Z,34.02
2023-03-13T15:31:51.314Z,33.83
2023-03-13T15:34:19.989Z,34.23
2023-03-13T15:36:47.361Z,33.79
2023-03-13T15:39:22.512Z,34.10
2023-03-13T15:41:50.107Z,34.56
2023-03-13T15:44:17.994Z,34.90
2023-03-13T15:46:46.189Z,34.92
2023-03-13T15:49:13.957Z,34.76
2023-03-13T15:51:41.678Z,35.20
2023-03-13T15:54:09.027Z,35.22
2023-03-13T15:56:37.578Z,35.44
2023-03-13T15:59:16.098Z,35.94
2023-03-13T16:01:45.220Z,35.91
2023-03-13T16:04:13.050Z,36.07
2023-03-13T16:06:40.441Z,35.94
2023-03-13T16:09:07.889Z,35.68
2023-03-13T16:11:35.785Z,35.81
2023-03-13T16:14:03.266Z,36.04
2023-03-13T16:16:36.931Z,35.97
2023-03-13T16:19:05.142Z,35.76
2023-03-13T16:21:34.811Z,35.73
2023-03-13T16:24:02.464Z,36.71
2023-03-13T16:26:31.511Z,36.88
2023-03-13T16:28:59.276Z,36.55
2023-03-13T16:31:36.433Z,36.82
2023-03-13T16:34:04.192Z,36.66
2023-03-13T16:36:32.639Z,36.43
2023-03-13T16:39:02.120Z,36.45
2023-03-13T16:41:30.038Z,36.12
2023-03-13T16:43:57.526Z,36.67
2023-03-13T16:46:30.397Z,36.35
2023-03-13T16:48:58.672Z,36.44
2023-03-13T16:51:27.647Z,36.72
2023-03-13T16:53:56.760Z,36.58
2023-03-13T16:56:38.858Z,37.26
2023-03-13T16:59:10.834Z,37.75
2023-03-13T17:01:39.144Z,37.86
2023-03-13T17:04:06.902Z,37.74
2023-03-13T17:06:37.017Z,38.41
2023-03-13T17:09:11.169Z,38.75
2023-03-13T17:11:38.541Z,38.98
2023-03-13T17:14:07.407Z,39.18
2023-03-13T17:16:38.084Z,39.81
2023-03-13T17:19:08.648Z,39.48
2023-03-13T17:21:37.135Z,39.95
2023-03-13T17:24:07.062Z,39.47
2023-03-13T17:26:37.687Z,39.50
2023-03-13T17:29:06.868Z,40.41
2023-03-13T17:31:38.563Z,39.58
2023-03-13T17:34:08.420Z,39.70
2023-03-13T17:36:37.370Z,40.25
2023-03-13T17:39:09.161Z,40.53
2023-03-13T17:41:37.693Z,40.34
2023-03-13T17:44:10.564Z,40.81
2023-03-13T17:46:49.913Z,40.69
2023-03-13T17:49:20.369Z,40.38
2023-03-13T17:51:50.302Z,41.25
2023-03-13T17:54:18.923Z,41.83
2023-03-13T17:56:46.920Z,41.42
2023-03-13T17:59:19.641Z,41.36
2023-03-13T18:01:47.562Z,41.03
2023-03-13T18:04:16.963Z,41.37
2023-03-13T18:06:47.196Z,41.77
2023-03-13T18:09:18.364Z,41.18
2023-03-13T18:11:49.751Z,41.13
2023-03-13T18:14:18.436Z,41.69
2023-03-13T18:16:51.280Z,41.18
2023-03-13T18:19:22.808Z,41.58
2023-03-13T18:21:53.761Z,41.64
2023-03-13T18:24:22.715Z,41.42
2023-03-13T18:26:51.681Z,41.44
2023-03-13T18:29:30.328Z,43.09
2023-03-13T18:32:01.096Z,41.45
2023-03-13T18:34:30.487Z,42.17
2023-03-13T18:37:05.816Z,41.43
2023-03-13T18:39:34.928Z,42.70
2023-03-13T18:42:03.928Z,43.21
2023-03-13T18:44:34.108Z,42.84
2023-03-13T18:47:05.651Z,42.54
2023-03-13T18:49:35.079Z,42.91
2023-03-13T18:52:04.201Z,42.82
2023-03-13T18:54:33.197Z,42.79
2023-03-13T18:57:01.900Z,44.04
2023-03-13T18:59:30.882Z,43.50
2023-03-13T19:02:03.832Z,43.39
2023-03-13T19:04:34.631Z,44.61
2023-03-13T19:07:02.795Z,45.68
2023-03-13T19:09:47.178Z,44.98
2023-03-13T19:12:18.826Z,43.94
2023-03-13T19:14:47.810Z,44.83
2023-03-13T19:17:30.731Z,44.95
2023-03-13T19:19:58.872Z,45.82
2023-03-13T19:22:27.994Z,45.36
2023-03-13T19:24:56.998Z,45.70
2023-03-13T19:27:25.516Z,45.79
2023-03-13T19:29:59.233Z,46.13
2023-03-13T19:32:28.641Z,46.17
2023-03-13T19:34:58.472Z,46.12
2023-03-13T19:37:30.161Z,45.46
2023-03-13T19:39:59.690Z,45.16
2023-03-13T19:42:29.073Z,45.45
2023-03-13T19:44:57.824Z,45.20
2023-03-13T19:47:26.927Z,45.12
2023-03-13T19:49:58.112Z,45.16
2023-03-13T19:52:28.127Z,44.30
2023-03-13T19:55:05.505Z,43.71
2023-03-13T19:57:35.907Z,43.93
2023-03-13T20:00:06.568Z,43.44
2023-03-13T20:02:41.875Z,44.12
2023-03-13T20:05:11.168Z,43.29
2023-03-13T20:07:42.272Z,43.02
2023-03-13T20:10:13.663Z,42.62
2023-03-13T20:12:43.553Z,42.22
2023-03-13T20:15:13.553Z,42.89
2023-03-13T20:17:42.701Z,43.26
2023-03-13T20:20:14.158Z,43.13
2023-03-13T20:22:45.730Z,42.85
2023-03-13T20:25:16.702Z,42.13
2023-03-13T20:27:45.854Z,42.31
2023-03-13T20:30:15.320Z,42.05
2023-03-13T20:32:58.452Z,42.09
2023-03-13T20:35:29.339Z,42.45
2023-03-13T20:38:00.213Z,42.74
2023-03-13T20:40:29.290Z,41.96
2023-03-13T20:42:59.457Z,42.70
2023-03-13T20:45:30.410Z,42.80
2023-03-13T20:48:01.333Z,43.35
2023-03-13T20:50:29.663Z,42.82
2023-03-13T20:52:58.177Z,42.24
2023-03-13T20:55:27.529Z,42.24
2023-03-13T20:57:56.145Z,42.20
2023-03-13T21:00:24.732Z,42.50
2023-03-13T21:02:55.813Z,42.57
2023-03-13T21:05:24.327Z,41.66
2023-03-13T21:07:53.200Z,41.77
2023-03-13T21:10:22.084Z,41.53
2023-03-13T21:12:50.454Z,41.54
2023-03-13T21:15:18.476Z,41.10
2023-03-13T21:17:47.150Z,41.20
2023-03-13T21:20:15.885Z,40.88
2023-03-13T21:22:46.114Z,41.09
2023-03-13T21:25:14.085Z,41.26
2023-03-13T21:27:43.818Z,40.88
2023-03-13T21:30:15.178Z,41.81
2023-03-13T21:32:43.294Z,41.82
2023-03-13T21:35:12.648Z,41.78
2023-03-13T21:37:40.827Z,41.90
2023-03-13T21:40:10.362Z,42.19
2023-03-13T21:42:38.148Z,41.74
2023-03-13T21:45:06.569Z,42.17
2023-03-13T21:47:37.745Z,41.94
2023-03-13T21:50:09.076Z,41.70
2023-03-13T21:52:40.944Z,41.74
2023-03-13T21:55:18.551Z,42.07
2023-03-13T21:57:50.106Z,41.72
2023-03-13T22:00:17.938Z,42.66
2023-03-13T22:02:46.655Z,41.94
2023-03-13T22:05:14.874Z,41.86
2023-03-13T22:07:42.424Z,42.04
2023-03-13T22:10:10.886Z,41.90
2023-03-13T22:12:39.139Z,42.88
2023-03-13T22:15:07.153Z,42.32
2023-03-13T22:17:35.058Z,43.21
2023-03-13T22:20:02.484Z,43.28
2023-03-13T22:22:30.450Z,42.45
2023-03-13T22:24:58.147Z,42.92
2023-03-13T22:27:25.597Z,43.25
2023-03-13T22:29:53.030Z,43.58
2023-03-13T22:32:21.874Z,42.83
2023-03-13T22:34:49.502Z,41.95
2023-03-13T22:37:17.041Z,42.08
2023-03-13T22:39:44.813Z,42.66
2023-03-13T22:42:12.208Z,43.12
2023-03-13T22:44:39.941Z,42.76
2023-03-13T22:47:07.736Z,42.82
2023-03-13T22:49:35.152Z,43.05
2023-03-13T22:52:02.745Z,43.33
2023-03-13T22:54:30.555Z,43.11
2023-03-13T22:56:58.150Z,43.58
2023-03-13T22:59:25.712Z,43.59
2023-03-13T23:01:53.419Z,43.44
2023-03-13T23:04:20.884Z,44.09
2023-03-13T23:06:48.287Z,44.17
2023-03-13T23:09:16.024Z,43.61
2023-03-13T23:11:43.809Z,43.85
2023-03-13T23:14:11.198Z,43.36
2023-03-13T23:16:39.225Z,43.46
2023-03-13T23:19:07.914Z,43.65
2023-03-13T23:21:36.535Z,44.53
2023-03-13T23:24:04.374Z,44.79
2023-03-13T23:26:31.813Z,44.30
2023-03-13T23:28:59.199Z,45.82
2023-03-13T23:31:26.923Z,44.84
2023-03-13T23:33:54.341Z,45.73
2023-03-13T23:36:21.967Z,45.58
2023-03-13T23:38:50.898Z,45.49
2023-03-13T23:41:19.056Z,46.60
2023-03-13T23:43:46.508Z,46.88
2023-03-13T23:46:40.805Z,45.07
2023-03-13T23:49:08.207Z,45.76
2023-03-13T23:51:36.379Z,45.74
2023-03-13T23:54:04.068Z,45.65
2023-03-13T23:56:31.797Z,46.03
2023-03-13T23:58:59.618Z,45.84
